sensor_id;sensor_type;location;lat;lon;timestamp;pressure;altitude;pressure_sealevel;temperature;humidity
40356;BME280;26061;50.044;19.930;2023-03-20T00:03:44;98616.34;;;4.41;92.21
40356;BME280;26061;50.044;19.930;2023-03-20T00:06:14;98612.19;;;4.51;92.28
40356;BME280;26061;50.044;19.930;2023-03-20T00:08:40;98609.06;;;4.59;91.51
40356;BME280;26061;50.044;19.930;2023-03-20T00:13:52;98610.19;;;4.42;93.43
40356;BME280;26061;50.044;19.930;2023-03-20T00:16:20;98602.84;;;4.47;92.71
40356;BME280;26061;50.044;19.930;2023-03-20T00:18:47;98607.75;;;4.39;93.26
40356;BME280;26061;50.044;19.930;2023-03-20T00:21:17;98610.06;;;4.43;94.66
40356;BME280;26061;50.044;19.930;2023-03-20T00:23:43;98607.78;;;4.52;93.11
40356;BME280;26061;50.044;19.930;2023-03-20T00:26:13;98602.31;;;4.55;93.14
40356;BME280;26061;50.044;19.930;2023-03-20T00:28:41;98608.25;;;4.58;92.44
40356;BME280;26061;50.044;19.930;2023-03-20T00:31:21;98609.03;;;4.46;92.79
40356;BME280;26061;50.044;19.930;2023-03-20T00:33:49;98606.84;;;4.26;94.88
40356;BME280;26061;50.044;19.930;2023-03-20T00:36:14;98606.69;;;4.41;93.83
40356;BME280;26061;50.044;19.930;2023-03-20T00:38:40;98597.63;;;4.33;94.55
40356;BME280;26061;50.044;19.930;2023-03-20T00:41:21;98603.03;;;4.44;94.30
40356;BME280;26061;50.044;19.930;2023-03-20T00:43:51;98602.56;;;4.64;92.07
40356;BME280;26061;50.044;19.930;2023-03-20T00:46:17;98598.88;;;4.54;92.06
40356;BME280;26061;50.044;19.930;2023-03-20T00:48:43;98599.41;;;4.59;92.20
40356;BME280;26061;50.044;19.930;2023-03-20T00:51:09;98597.75;;;4.58;92.24
40356;BME280;26061;50.044;19.930;2023-03-20T00:53:35;98600.28;;;4.73;90.69
40356;BME280;26061;50.044;19.930;2023-03-20T00:56:02;98602.78;;;4.61;90.93
40356;BME280;26061;50.044;19.930;2023-03-20T00:58:27;98603.47;;;4.78;90.62
40356;BME280;26061;50.044;19.930;2023-03-20T01:00:53;98594.34;;;4.56;92.62
40356;BME280;26061;50.044;19.930;2023-03-20T01:03:22;98603.22;;;4.41;93.70
40356;BME280;26061;50.044;19.930;2023-03-20T01:05:49;98600.66;;;4.54;94.14
40356;BME280;26061;50.044;19.930;2023-03-20T01:10:43;98605.56;;;4.18;96.27
40356;BME280;26061;50.044;19.930;2023-03-20T01:13:27;98598.28;;;4.36;96.24
40356;BME280;26061;50.044;19.930;2023-03-20T01:15:54;98595.31;;;4.55;95.42
40356;BME280;26061;50.044;19.930;2023-03-20T01:18:22;98602.16;;;4.71;94.55
40356;BME280;26061;50.044;19.930;2023-03-20T01:20:49;98606.09;;;4.51;95.50
40356;BME280;26061;50.044;19.930;2023-03-20T01:23:15;98601.44;;;4.41;96.71
40356;BME280;26061;50.044;19.930;2023-03-20T01:25:41;98589.19;;;4.28;96.97
40356;BME280;26061;50.044;19.930;2023-03-20T01:28:21;98598.72;;;4.43;96.91
40356;BME280;26061;50.044;19.930;2023-03-20T01:30:48;98596.84;;;4.45;97.30
40356;BME280;26061;50.044;19.930;2023-03-20T01:33:19;98600.50;;;4.70;95.74
40356;BME280;26061;50.044;19.930;2023-03-20T01:35:46;98605.84;;;4.41;97.21
40356;BME280;26061;50.044;19.930;2023-03-20T01:38:19;98605.13;;;4.39;97.71
40356;BME280;26061;50.044;19.930;2023-03-20T01:43:28;98600.22;;;4.47;96.36
40356;BME280;26061;50.044;19.930;2023-03-20T01:51:19;98601.06;;;4.48;98.71
40356;BME280;26061;50.044;19.930;2023-03-20T01:53:52;98597.53;;;4.34;98.31
40356;BME280;26061;50.044;19.930;2023-03-20T01:56:19;98593.88;;;4.10;100.00
40356;BME280;26061;50.044;19.930;2023-03-20T01:59:01;98598.63;;;4.17;100.00
40356;BME280;26061;50.044;19.930;2023-03-20T02:01:28;98597.38;;;3.96;100.00
40356;BME280;26061;50.044;19.930;2023-03-20T02:03:54;98602.94;;;4.18;100.00
40356;BME280;26061;50.044;19.930;2023-03-20T02:06:22;98602.66;;;4.23;100.00
40356;BME280;26061;50.044;19.930;2023-03-20T02:08:50;98609.84;;;4.34;99.97
40356;BME280;26061;50.044;19.930;2023-03-20T02:11:18;98600.94;;;4.22;100.00
40356;BME280;26061;50.044;19.930;2023-03-20T02:13:46;98606.44;;;4.32;99.72
40356;BME280;26061;50.044;19.930;2023-03-20T02:16:14;98603.56;;;4.49;97.93
40356;BME280;26061;50.044;19.930;2023-03-20T02:18:42;98605.22;;;4.37;98.60
40356;BME280;26061;50.044;19.930;2023-03-20T02:27:17;98604.72;;;4.85;94.60
40356;BME280;26061;50.044;19.930;2023-03-20T02:38:46;98603.91;;;4.30;97.65
40356;BME280;26061;50.044;19.930;2023-03-20T02:47:12;98606.44;;;4.59;96.54
40356;BME280;26061;50.044;19.930;2023-03-20T02:52:19;98604.09;;;4.81;95.40
40356;BME280;26061;50.044;19.930;2023-03-20T02:55:19;98607.88;;;4.90;94.82
40356;BME280;26061;50.044;19.930;2023-03-20T02:58:06;98603.25;;;4.94;95.23
40356;BME280;26061;50.044;19.930;2023-03-20T03:00:38;98598.97;;;5.05;94.55
40356;BME280;26061;50.044;19.930;2023-03-20T03:03:07;98608.25;;;5.24;93.47
40356;BME280;26061;50.044;19.930;2023-03-20T03:05:44;98592.16;;;5.41;91.73
40356;BME280;26061;50.044;19.930;2023-03-20T03:08:13;98601.81;;;5.15;93.55
40356;BME280;26061;50.044;19.930;2023-03-20T03:10:46;98600.38;;;5.24;93.71
40356;BME280;26061;50.044;19.930;2023-03-20T03:13:18;98601.19;;;5.37;93.44
40356;BME280;26061;50.044;19.930;2023-03-20T03:15:49;98594.78;;;5.41;92.63
40356;BME280;26061;50.044;19.930;2023-03-20T03:18:19;98594.56;;;5.31;93.79
40356;BME280;26061;50.044;19.930;2023-03-20T03:20:49;98599.72;;;5.07;97.43
40356;BME280;26061;50.044;19.930;2023-03-20T03:23:48;98602.41;;;4.93;98.64
40356;BME280;26061;50.044;19.930;2023-03-20T03:26:26;98582.47;;;5.42;94.41
40356;BME280;26061;50.044;19.930;2023-03-20T03:28:59;98595.06;;;5.62;92.70
40356;BME280;26061;50.044;19.930;2023-03-20T03:31:27;98591.59;;;5.74;91.24
40356;BME280;26061;50.044;19.930;2023-03-20T03:33:56;98593.56;;;5.96;90.17
40356;BME280;26061;50.044;19.930;2023-03-20T03:36:48;98588.91;;;6.13;87.62
40356;BME280;26061;50.044;19.930;2023-03-20T03:39:42;98584.38;;;6.15;87.64
40356;BME280;26061;50.044;19.930;2023-03-20T03:42:32;98587.50;;;6.20;87.58
40356;BME280;26061;50.044;19.930;2023-03-20T03:45:10;98584.31;;;6.28;86.56
40356;BME280;26061;50.044;19.930;2023-03-20T03:50:16;98583.50;;;6.38;85.25
40356;BME280;26061;50.044;19.930;2023-03-20T03:52:45;98579.53;;;6.33;85.44
40356;BME280;26061;50.044;19.930;2023-03-20T03:55:26;98580.22;;;6.48;85.25
40356;BME280;26061;50.044;19.930;2023-03-20T03:58:01;98593.06;;;6.28;86.47
40356;BME280;26061;50.044;19.930;2023-03-20T04:00:31;98589.56;;;6.04;90.45
40356;BME280;26061;50.044;19.930;2023-03-20T04:02:57;98589.28;;;6.19;88.53
40356;BME280;26061;50.044;19.930;2023-03-20T04:05:25;98589.25;;;6.32;90.62
40356;BME280;26061;50.044;19.930;2023-03-20T04:07:55;98597.88;;;6.34;89.70
40356;BME280;26061;50.044;19.930;2023-03-20T04:10:22;98587.72;;;6.17;88.47
40356;BME280;26061;50.044;19.930;2023-03-20T04:12:48;98586.72;;;6.31;87.18
40356;BME280;26061;50.044;19.930;2023-03-20T04:15:15;98587.81;;;6.28;89.40
40356;BME280;26061;50.044;19.930;2023-03-20T04:17:41;98590.63;;;6.25;90.41
40356;BME280;26061;50.044;19.930;2023-03-20T04:20:08;98582.53;;;6.28;92.50
40356;BME280;26061;50.044;19.930;2023-03-20T04:22:37;98587.00;;;6.15;90.68
40356;BME280;26061;50.044;19.930;2023-03-20T04:25:04;98590.63;;;6.49;87.29
40356;BME280;26061;50.044;19.930;2023-03-20T04:27:30;98584.53;;;6.49;85.93
40356;BME280;26061;50.044;19.930;2023-03-20T04:29:56;98587.63;;;6.42;87.18
40356;BME280;26061;50.044;19.930;2023-03-20T04:32:22;98585.88;;;6.54;87.54
40356;BME280;26061;50.044;19.930;2023-03-20T04:34:48;98588.75;;;6.51;89.10
40356;BME280;26061;50.044;19.930;2023-03-20T04:37:14;98586.59;;;6.32;90.38
40356;BME280;26061;50.044;19.930;2023-03-20T04:39:39;98596.25;;;6.20;91.93
40356;BME280;26061;50.044;19.930;2023-03-20T04:42:06;98594.47;;;6.08;93.38
40356;BME280;26061;50.044;19.930;2023-03-20T04:44:32;98595.19;;;6.23;90.89
40356;BME280;26061;50.044;19.930;2023-03-20T04:46:59;98599.53;;;6.35;89.38
40356;BME280;26061;50.044;19.930;2023-03-20T04:49:24;98592.63;;;6.34;91.52
40356;BME280;26061;50.044;19.930;2023-03-20T04:51:51;98583.47;;;6.51;91.78
40356;BME280;26061;50.044;19.930;2023-03-20T04:54:18;98592.63;;;6.34;92.94
40356;BME280;26061;50.044;19.930;2023-03-20T04:56:44;98593.78;;;6.30;94.23
40356;BME280;26061;50.044;19.930;2023-03-20T04:59:10;98591.78;;;6.34;93.62
40356;BME280;26061;50.044;19.930;2023-03-20T05:01:35;98595.34;;;6.33;94.77
40356;BME280;26061;50.044;19.930;2023-03-20T05:04:01;98594.56;;;6.43;93.79
40356;BME280;26061;50.044;19.930;2023-03-20T05:06:27;98596.75;;;6.50;93.78
40356;BME280;26061;50.044;19.930;2023-03-20T05:08:53;98596.09;;;6.59;93.32
40356;BME280;26061;50.044;19.930;2023-03-20T05:11:19;98595.34;;;6.57;92.38
40356;BME280;26061;50.044;19.930;2023-03-20T05:13:45;98604.16;;;6.44;94.29
40356;BME280;26061;50.044;19.930;2023-03-20T05:16:10;98609.22;;;6.48;95.10
40356;BME280;26061;50.044;19.930;2023-03-20T05:18:36;98616.38;;;6.45;91.72
40356;BME280;26061;50.044;19.930;2023-03-20T05:21:02;98609.78;;;6.27;93.30
40356;BME280;26061;50.044;19.930;2023-03-20T05:23:28;98614.41;;;5.99;95.23
40356;BME280;26061;50.044;19.930;2023-03-20T05:25:55;98619.16;;;5.94;94.11
40356;BME280;26061;50.044;19.930;2023-03-20T05:28:21;98615.75;;;6.42;97.00
40356;BME280;26061;50.044;19.930;2023-03-20T05:30:46;98615.75;;;6.42;96.43
40356;BME280;26061;50.044;19.930;2023-03-20T05:33:12;98626.44;;;6.52;93.58
40356;BME280;26061;50.044;19.930;2023-03-20T05:35:38;98623.69;;;6.29;93.37
40356;BME280;26061;50.044;19.930;2023-03-20T05:38:03;98622.88;;;6.53;91.46
40356;BME280;26061;50.044;19.930;2023-03-20T05:40:29;98623.81;;;6.76;92.01
40356;BME280;26061;50.044;19.930;2023-03-20T05:42:55;98625.16;;;6.81;93.94
40356;BME280;26061;50.044;19.930;2023-03-20T05:45:20;98629.09;;;7.11;91.69
40356;BME280;26061;50.044;19.930;2023-03-20T05:47:46;98629.94;;;7.11;94.11
40356;BME280;26061;50.044;19.930;2023-03-20T05:50:12;98632.91;;;7.07;94.87
40356;BME280;26061;50.044;19.930;2023-03-20T05:52:38;98632.22;;;7.16;92.92
40356;BME280;26061;50.044;19.930;2023-03-20T05:55:04;98635.31;;;7.10;93.70
40356;BME280;26061;50.044;19.930;2023-03-20T05:57:30;98629.22;;;6.85;91.94
40356;BME280;26061;50.044;19.930;2023-03-20T05:59:56;98638.59;;;6.89;93.53
40356;BME280;26061;50.044;19.930;2023-03-20T06:02:22;98629.34;;;7.08;93.23
40356;BME280;26061;50.044;19.930;2023-03-20T06:04:48;98639.44;;;7.25;93.05
40356;BME280;26061;50.044;19.930;2023-03-20T06:07:13;98635.66;;;7.52;91.44
40356;BME280;26061;50.044;19.930;2023-03-20T06:09:39;98634.44;;;7.56;93.96
40356;BME280;26061;50.044;19.930;2023-03-20T06:12:05;98638.66;;;7.70;94.65
40356;BME280;26061;50.044;19.930;2023-03-20T06:14:31;98634.84;;;7.63;93.51
40356;BME280;26061;50.044;19.930;2023-03-20T06:16:56;98636.16;;;7.57;96.05
40356;BME280;26061;50.044;19.930;2023-03-20T06:19:23;98645.97;;;7.66;95.57
40356;BME280;26061;50.044;19.930;2023-03-20T06:21:49;98648.88;;;7.97;92.98
40356;BME280;26061;50.044;19.930;2023-03-20T06:24:15;98646.34;;;7.73;93.61
40356;BME280;26061;50.044;19.930;2023-03-20T06:26:41;98642.28;;;7.80;92.76
40356;BME280;26061;50.044;19.930;2023-03-20T06:29:07;98650.09;;;7.82;92.88
40356;BME280;26061;50.044;19.930;2023-03-20T06:31:32;98651.25;;;8.11;91.46
40356;BME280;26061;50.044;19.930;2023-03-20T06:33:58;98651.94;;;8.36;90.30
40356;BME280;26061;50.044;19.930;2023-03-20T06:36:24;98655.75;;;8.65;89.71
40356;BME280;26061;50.044;19.930;2023-03-20T06:38:50;98659.16;;;8.56;91.65
40356;BME280;26061;50.044;19.930;2023-03-20T06:41:15;98659.75;;;8.60;90.36
40356;BME280;26061;50.044;19.930;2023-03-20T06:43:41;98659.63;;;8.61;87.41
40356;BME280;26061;50.044;19.930;2023-03-20T06:46:07;98658.94;;;8.92;87.75
40356;BME280;26061;50.044;19.930;2023-03-20T06:48:33;98659.19;;;9.09;86.69
40356;BME280;26061;50.044;19.930;2023-03-20T06:50:59;98665.81;;;9.36;85.24
40356;BME280;26061;50.044;19.930;2023-03-20T06:53:25;98668.97;;;9.51;84.37
40356;BME280;26061;50.044;19.930;2023-03-20T06:55:51;98668.75;;;9.64;84.25
40356;BME280;26061;50.044;19.930;2023-03-20T06:58:17;98664.66;;;9.80;84.68
40356;BME280;26061;50.044;19.930;2023-03-20T07:00:43;98661.94;;;9.92;82.33
40356;BME280;26061;50.044;19.930;2023-03-20T07:03:09;98664.72;;;10.21;81.98
40356;BME280;26061;50.044;19.930;2023-03-20T07:05:36;98664.19;;;10.27;81.51
40356;BME280;26061;50.044;19.930;2023-03-20T07:08:03;98660.03;;;10.03;83.10
40356;BME280;26061;50.044;19.930;2023-03-20T07:10:29;98666.84;;;10.27;83.53
40356;BME280;26061;50.044;19.930;2023-03-20T07:12:55;98665.50;;;10.42;81.36
40356;BME280;26061;50.044;19.930;2023-03-20T07:15:21;98669.31;;;10.69;80.00
40356;BME280;26061;50.044;19.930;2023-03-20T07:17:47;98670.25;;;10.58;81.21
40356;BME280;26061;50.044;19.930;2023-03-20T07:20:13;98666.22;;;10.64;81.22
40356;BME280;26061;50.044;19.930;2023-03-20T07:22:39;98665.56;;;10.62;81.75
40356;BME280;26061;50.044;19.930;2023-03-20T07:25:09;98672.66;;;10.61;82.75
40356;BME280;26061;50.044;19.930;2023-03-20T07:27:35;98672.78;;;10.60;84.44
40356;BME280;26061;50.044;19.930;2023-03-20T07:30:03;98671.97;;;10.59;86.00
40356;BME280;26061;50.044;19.930;2023-03-20T07:32:29;98670.00;;;10.52;85.15
40356;BME280;26061;50.044;19.930;2023-03-20T07:34:55;98670.38;;;10.37;86.38
40356;BME280;26061;50.044;19.930;2023-03-20T07:37:20;98673.47;;;10.52;86.22
40356;BME280;26061;50.044;19.930;2023-03-20T07:39:46;98682.25;;;10.53;86.22
40356;BME280;26061;50.044;19.930;2023-03-20T07:42:12;98677.53;;;10.56;85.38
40356;BME280;26061;50.044;19.930;2023-03-20T07:44:40;98682.56;;;10.59;85.64
40356;BME280;26061;50.044;19.930;2023-03-20T07:47:07;98684.19;;;10.31;88.26
40356;BME280;26061;50.044;19.930;2023-03-20T07:49:32;98677.81;;;10.63;87.84
40356;BME280;26061;50.044;19.930;2023-03-20T07:51:59;98689.28;;;10.73;87.48
40356;BME280;26061;50.044;19.930;2023-03-20T07:54:24;98675.91;;;10.84;88.71
40356;BME280;26061;50.044;19.930;2023-03-20T07:56:50;98686.53;;;11.04;87.52
40356;BME280;26061;50.044;19.930;2023-03-20T07:59:17;98690.31;;;11.11;88.19
40356;BME280;26061;50.044;19.930;2023-03-20T08:01:43;98686.50;;;10.65;92.22
40356;BME280;26061;50.044;19.930;2023-03-20T08:04:08;98685.53;;;10.85;92.17
40356;BME280;26061;50.044;19.930;2023-03-20T08:06:34;60187.28;;;-145.63;100.00
40356;BME280;26061;50.044;19.930;2023-03-20T08:09:00;98686.25;;;11.26;92.96
40356;BME280;26061;50.044;19.930;2023-03-20T08:11:26;98689.34;;;11.41;91.07
40356;BME280;26061;50.044;19.930;2023-03-20T08:13:52;98695.44;;;11.61;91.70
40356;BME280;26061;50.044;19.930;2023-03-20T08:16:18;98691.22;;;11.88;91.27
40356;BME280;26061;50.044;19.930;2023-03-20T08:18:43;98696.88;;;11.36;95.24
40356;BME280;26061;50.044;19.930;2023-03-20T08:21:09;98699.38;;;11.18;98.75
40356;BME280;26061;50.044;19.930;2023-03-20T08:23:35;98701.91;;;11.39;94.96
40356;BME280;26061;50.044;19.930;2023-03-20T08:26:01;98693.75;;;11.70;95.23
40356;BME280;26061;50.044;19.930;2023-03-20T08:28:26;98696.56;;;11.68;94.13
40356;BME280;26061;50.044;19.930;2023-03-20T08:30:52;98708.81;;;11.79;93.55
40356;BME280;26061;50.044;19.930;2023-03-20T08:33:18;98696.38;;;11.89;94.58
40356;BME280;26061;50.044;19.930;2023-03-20T08:35:54;98691.84;;;12.09;96.38
40356;BME280;26061;50.044;19.930;2023-03-20T08:38:20;98698.63;;;11.94;94.75
40356;BME280;26061;50.044;19.930;2023-03-20T08:40:46;98698.59;;;11.84;96.49
40356;BME280;26061;50.044;19.930;2023-03-20T08:43:11;98694.56;;;11.90;96.09
40356;BME280;26061;50.044;19.930;2023-03-20T08:45:37;98699.13;;;12.90;92.07
40356;BME280;26061;50.044;19.930;2023-03-20T08:48:02;98697.91;;;13.02;87.80
40356;BME280;26061;50.044;19.930;2023-03-20T08:50:28;98699.09;;;13.36;86.63
40356;BME280;26061;50.044;19.930;2023-03-20T08:52:54;98702.03;;;13.15;87.49
40356;BME280;26061;50.044;19.930;2023-03-20T08:55:20;98704.84;;;13.49;83.88
40356;BME280;26061;50.044;19.930;2023-03-20T08:57:46;98702.13;;;12.59;92.94
40356;BME280;26061;50.044;19.930;2023-03-20T09:00:13;98707.13;;;12.07;92.90
40356;BME280;26061;50.044;19.930;2023-03-20T09:02:43;98706.31;;;11.77;93.86
40356;BME280;26061;50.044;19.930;2023-03-20T09:05:09;98711.84;;;12.13;93.13
40356;BME280;26061;50.044;19.930;2023-03-20T09:07:35;98722.66;;;11.83;98.30
40356;BME280;26061;50.044;19.930;2023-03-20T09:10:03;98726.06;;;11.46;100.00
40356;BME280;26061;50.044;19.930;2023-03-20T09:12:28;98734.03;;;11.26;100.00
40356;BME280;26061;50.044;19.930;2023-03-20T09:14:56;98727.53;;;10.80;100.00
40356;BME280;26061;50.044;19.930;2023-03-20T09:17:21;98717.78;;;10.90;100.00
40356;BME280;26061;50.044;19.930;2023-03-20T09:19:47;98729.16;;;11.22;100.00
40356;BME280;26061;50.044;19.930;2023-03-20T09:22:14;98721.03;;;11.23;100.00
40356;BME280;26061;50.044;19.930;2023-03-20T09:24:43;98720.47;;;11.10;100.00
40356;BME280;26061;50.044;19.930;2023-03-20T09:27:09;98717.81;;;11.49;100.00
40356;BME280;26061;50.044;19.930;2023-03-20T09:29:42;98711.97;;;11.55;100.00
40356;BME280;26061;50.044;19.930;2023-03-20T09:32:12;98706.91;;;10.94;100.00
40356;BME280;26061;50.044;19.930;2023-03-20T09:34:38;98709.13;;;10.88;100.00
40356;BME280;26061;50.044;19.930;2023-03-20T09:37:04;98714.25;;;10.61;100.00
40356;BME280;26061;50.044;19.930;2023-03-20T09:39:31;98710.13;;;10.78;100.00
40356;BME280;26061;50.044;19.930;2023-03-20T09:42:04;98709.13;;;10.88;100.00
40356;BME280;26061;50.044;19.930;2023-03-20T09:44:45;98704.00;;;11.06;100.00
40356;BME280;26061;50.044;19.930;2023-03-20T09:49:55;98705.25;;;11.12;100.00
40356;BME280;26061;50.044;19.930;2023-03-20T09:52:25;98716.13;;;10.99;100.00
40356;BME280;26061;50.044;19.930;2023-03-20T09:54:54;98709.59;;;11.03;100.00
40356;BME280;26061;50.044;19.930;2023-03-20T09:57:25;98709.88;;;11.20;100.00
40356;BME280;26061;50.044;19.930;2023-03-20T09:59:58;98719.38;;;11.22;100.00
40356;BME280;26061;50.044;19.930;2023-03-20T10:02:37;98716.28;;;11.46;100.00
40356;BME280;26061;50.044;19.930;2023-03-20T10:05:31;98713.59;;;11.75;100.00
40356;BME280;26061;50.044;19.930;2023-03-20T10:08:04;98714.75;;;11.44;100.00
40356;BME280;26061;50.044;19.930;2023-03-20T10:10:48;98705.66;;;11.66;100.00
40356;BME280;26061;50.044;19.930;2023-03-20T10:19:27;98688.72;;;11.76;100.00
40356;BME280;26061;50.044;19.930;2023-03-20T10:22:01;98710.25;;;11.64;100.00
40356;BME280;26061;50.044;19.930;2023-03-20T10:25:07;98702.03;;;11.18;100.00
40356;BME280;26061;50.044;19.930;2023-03-20T10:27:39;98711.84;;;11.08;100.00
40356;BME280;26061;50.044;19.930;2023-03-20T10:35:56;98705.81;;;11.35;100.00
40356;BME280;26061;50.044;19.930;2023-03-20T10:41:52;98705.81;;;11.25;100.00
40356;BME280;26061;50.044;19.930;2023-03-20T10:44:35;98711.13;;;11.06;100.00
40356;BME280;26061;50.044;19.930;2023-03-20T10:47:05;98705.41;;;11.30;100.00
40356;BME280;26061;50.044;19.930;2023-03-20T10:52:09;98703.44;;;11.22;100.00
40356;BME280;26061;50.044;19.930;2023-03-20T10:54:41;98718.13;;;11.36;100.00
40356;BME280;26061;50.044;19.930;2023-03-20T10:57:20;98709.97;;;11.57;100.00
40356;BME280;26061;50.044;19.930;2023-03-20T10:59:49;98705.81;;;11.45;100.00
40356;BME280;26061;50.044;19.930;2023-03-20T11:02:18;98710.94;;;11.75;100.00
40356;BME280;26061;50.044;19.930;2023-03-20T11:04:44;98708.56;;;11.72;100.00
40356;BME280;26061;50.044;19.930;2023-03-20T11:12:33;98718.63;;;11.88;100.00
40356;BME280;26061;50.044;19.930;2023-03-20T11:15:03;98707.53;;;12.12;100.00
40356;BME280;26061;50.044;19.930;2023-03-20T11:17:38;98700.50;;;12.49;100.00
40356;BME280;26061;50.044;19.930;2023-03-20T11:20:04;98696.84;;;12.50;100.00
40356;BME280;26061;50.044;19.930;2023-03-20T11:22:30;98699.06;;;12.54;100.00
40356;BME280;26061;50.044;19.930;2023-03-20T11:24:59;98703.44;;;12.73;100.00
40356;BME280;26061;50.044;19.930;2023-03-20T11:27:34;98700.72;;;12.83;100.00
40356;BME280;26061;50.044;19.930;2023-03-20T11:30:04;98697.78;;;12.58;100.00
40356;BME280;26061;50.044;19.930;2023-03-20T11:35:19;98697.00;;;12.76;100.00
40356;BME280;26061;50.044;19.930;2023-03-20T11:37:47;98695.72;;;12.52;100.00
40356;BME280;26061;50.044;19.930;2023-03-20T11:40:24;98687.44;;;12.55;100.00
40356;BME280;26061;50.044;19.930;2023-03-20T11:45:32;98688.56;;;12.25;100.00
40356;BME280;26061;50.044;19.930;2023-03-20T11:48:00;98685.69;;;12.46;100.00
40356;BME280;26061;50.044;19.930;2023-03-20T11:53:00;98675.22;;;12.62;100.00
40356;BME280;26061;50.044;19.930;2023-03-20T11:55:29;98675.63;;;12.67;100.00
40356;BME280;26061;50.044;19.930;2023-03-20T11:57:57;98675.75;;;12.66;100.00
40356;BME280;26061;50.044;19.930;2023-03-20T12:00:27;98670.28;;;12.67;100.00
40356;BME280;26061;50.044;19.930;2023-03-20T12:02:53;98670.19;;;12.59;100.00
40356;BME280;26061;50.044;19.930;2023-03-20T12:05:32;98667.56;;;12.77;100.00
40356;BME280;26061;50.044;19.930;2023-03-20T12:08:03;98668.78;;;12.83;100.00
40356;BME280;26061;50.044;19.930;2023-03-20T12:10:35;98663.66;;;12.72;100.00
40356;BME280;26061;50.044;19.930;2023-03-20T12:15:46;98660.13;;;12.99;100.00
40356;BME280;26061;50.044;19.930;2023-03-20T12:21:01;98654.25;;;13.13;100.00
40356;BME280;26061;50.044;19.930;2023-03-20T12:26:31;98660.19;;;13.25;100.00
40356;BME280;26061;50.044;19.930;2023-03-20T12:32:04;98658.13;;;13.19;100.00
40356;BME280;26061;50.044;19.930;2023-03-20T12:34:37;98660.41;;;13.13;100.00
40356;BME280;26061;50.044;19.930;2023-03-20T12:37:08;98649.41;;;13.08;100.00
40356;BME280;26061;50.044;19.930;2023-03-20T12:39:41;98658.84;;;13.03;100.00
40356;BME280;26061;50.044;19.930;2023-03-20T12:45:00;98654.97;;;12.97;100.00
40356;BME280;26061;50.044;19.930;2023-03-20T12:50:16;98648.88;;;12.87;100.00
40356;BME280;26061;50.044;19.930;2023-03-20T12:55:38;98657.47;;;12.81;100.00
40356;BME280;26061;50.044;19.930;2023-03-20T12:58:16;98655.09;;;12.78;100.00
40356;BME280;26061;50.044;19.930;2023-03-20T13:22:28;98650.44;;;12.80;100.00
40356;BME280;26061;50.044;19.930;2023-03-20T13:27:51;98645.06;;;12.89;100.00
40356;BME280;26061;50.044;19.930;2023-03-20T13:30:36;98635.47;;;13.15;100.00
40356;BME280;26061;50.044;19.930;2023-03-20T13:38:30;98632.88;;;13.41;100.00
40356;BME280;26061;50.044;19.930;2023-03-20T13:41:06;98629.47;;;13.30;100.00
40356;BME280;26061;50.044;19.930;2023-03-20T13:43:38;98638.06;;;12.88;100.00
40356;BME280;26061;50.044;19.930;2023-03-20T13:46:18;98638.84;;;12.81;100.00
40356;BME280;26061;50.044;19.930;2023-03-20T13:48:47;98639.75;;;12.89;100.00
40356;BME280;26061;50.044;19.930;2023-03-20T13:56:39;98628.31;;;12.61;100.00
40356;BME280;26061;50.044;19.930;2023-03-20T14:02:11;98621.78;;;13.09;100.00
40356;BME280;26061;50.044;19.930;2023-03-20T14:04:40;98626.28;;;12.91;100.00
40356;BME280;26061;50.044;19.930;2023-03-20T14:07:34;98626.72;;;13.04;100.00
40356;BME280;26061;50.044;19.930;2023-03-20T14:13:04;98628.34;;;12.79;100.00
40356;BME280;26061;50.044;19.930;2023-03-20T14:15:32;98626.06;;;12.84;100.00
40356;BME280;26061;50.044;19.930;2023-03-20T14:18:03;98616.69;;;12.80;100.00
40356;BME280;26061;50.044;19.930;2023-03-20T14:20:40;98618.53;;;12.80;100.00
40356;BME280;26061;50.044;19.930;2023-03-20T14:23:16;98621.09;;;13.07;100.00
40356;BME280;26061;50.044;19.930;2023-03-20T14:25:42;98615.31;;;12.94;100.00
40356;BME280;26061;50.044;19.930;2023-03-20T14:30:41;98608.16;;;13.12;100.00
40356;BME280;26061;50.044;19.930;2023-03-20T14:35:49;98607.06;;;12.97;100.00
40356;BME280;26061;50.044;19.930;2023-03-20T14:41:07;98606.69;;;12.92;100.00
40356;BME280;26061;50.044;19.930;2023-03-20T14:46:51;98601.72;;;13.33;100.00
40356;BME280;26061;50.044;19.930;2023-03-20T14:52:01;98602.09;;;13.46;100.00
40356;BME280;26061;50.044;19.930;2023-03-20T14:54:38;98606.09;;;13.24;100.00
40356;BME280;26061;50.044;19.930;2023-03-20T14:57:16;98598.56;;;13.38;100.00
40356;BME280;26061;50.044;19.930;2023-03-20T14:59:48;98602.16;;;13.54;100.00
40356;BME280;26061;50.044;19.930;2023-03-20T15:02:28;98598.13;;;13.76;100.00
40356;BME280;26061;50.044;19.930;2023-03-20T15:04:58;98599.63;;;13.79;97.46
40356;BME280;26061;50.044;19.930;2023-03-20T15:07:27;98592.69;;;13.86;96.85
40356;BME280;26061;50.044;19.930;2023-03-20T15:09:57;98589.97;;;13.78;96.99
40356;BME280;26061;50.044;19.930;2023-03-20T15:12:29;98591.16;;;13.49;99.83
40356;BME280;26061;50.044;19.930;2023-03-20T15:15:00;98590.91;;;13.61;96.90
40356;BME280;26061;50.044;19.930;2023-03-20T15:17:37;98599.69;;;13.87;92.70
40356;BME280;26061;50.044;19.930;2023-03-20T15:20:16;98596.81;;;13.81;92.36
40356;BME280;26061;50.044;19.930;2023-03-20T15:22:52;98601.84;;;13.84;92.38
40356;BME280;26061;50.044;19.930;2023-03-20T15:25:21;98593.81;;;13.75;92.09
40356;BME280;26061;50.044;19.930;2023-03-20T15:27:47;98601.00;;;13.57;92.12
40356;BME280;26061;50.044;19.930;2023-03-20T15:30:17;98587.31;;;13.78;90.63
40356;BME280;26061;50.044;19.930;2023-03-20T15:32:43;98593.09;;;13.39;92.39
40356;BME280;26061;50.044;19.930;2023-03-20T15:35:14;98581.81;;;13.45;93.08